Terminal Aerodrome Forecast
Issued by NWS Tuscon, AZ

Home | Current Version | Previous Version | Text Only | Print | Product List | Glossary On
Versions: 1 2 3 4 5 6 7 8 9 10 11 12 13 14
000
FTUS45 KTWC 291700 RRA
TAFTUS
TAF
KTUS 291740Z 2918/3018 17007KT P6SM BKN100 OVC200
     FM292000 16012KT P6SM FEW070 BKN100 OVC150
     FM292200 15012G20KT P6SM VCSH BKN070 OVC120
     FM300200 12009KT P6SM -SHRA FEW020 BKN035 OVC070
     FM300700 12011KT 6SM -SHRA BR SCT015 BKN025 OVC050=

USA.gov is the U.S. government's official web portal to all federal, state and local government web resources and services.